sensor_id;sensor_type;location;lat;lon;timestamp;P1;durP1;ratioP1;P2;durP2;ratioP2
19971;SDS011;10147;16.402;102.848;2022-12-29T00:01:38;34.25;;;30.38;;
19971;SDS011;10147;16.402;102.848;2022-12-29T00:04:10;33.05;;;29.27;;
19971;SDS011;10147;16.402;102.848;2022-12-29T00:06:42;41.47;;;30.77;;
19971;SDS011;10147;16.402;102.848;2022-12-29T00:09:13;35.50;;;30.45;;
19971;SDS011;10147;16.402;102.848;2022-12-29T00:11:43;34.05;;;29.00;;
19971;SDS011;10147;16.402;102.848;2022-12-29T00:14:14;35.25;;;29.00;;
19971;SDS011;10147;16.402;102.848;2022-12-29T00:17:04;45.38;;;30.10;;
19971;SDS011;10147;16.402;102.848;2022-12-29T00:19:34;42.65;;;30.20;;
19971;SDS011;10147;16.402;102.848;2022-12-29T00:22:25;37.95;;;27.88;;
19971;SDS011;10147;16.402;102.848;2022-12-29T00:25:15;50.95;;;35.95;;
19971;SDS011;10147;16.402;102.848;2022-12-29T00:28:07;47.88;;;35.03;;
19971;SDS011;10147;16.402;102.848;2022-12-29T00:30:59;51.30;;;37.90;;
19971;SDS011;10147;16.402;102.848;2022-12-29T00:33:49;40.72;;;31.88;;
19971;SDS011;10147;16.402;102.848;2022-12-29T00:36:40;46.13;;;34.22;;
19971;SDS011;10147;16.402;102.848;2022-12-29T00:39:13;40.50;;;27.58;;
19971;SDS011;10147;16.402;102.848;2022-12-29T00:42:04;58.42;;;29.98;;
19971;SDS011;10147;16.402;102.848;2022-12-29T00:44:55;44.35;;;27.48;;
19971;SDS011;10147;16.402;102.848;2022-12-29T00:47:26;43.08;;;22.65;;
19971;SDS011;10147;16.402;102.848;2022-12-29T00:49:56;36.60;;;23.45;;
19971;SDS011;10147;16.402;102.848;2022-12-29T00:52:26;31.60;;;23.80;;
19971;SDS011;10147;16.402;102.848;2022-12-29T00:54:57;30.70;;;23.27;;
19971;SDS011;10147;16.402;102.848;2022-12-29T00:57:28;34.63;;;23.42;;
19971;SDS011;10147;16.402;102.848;2022-12-29T00:59:58;27.35;;;20.33;;
19971;SDS011;10147;16.402;102.848;2022-12-29T01:02:29;24.40;;;18.20;;
19971;SDS011;10147;16.402;102.848;2022-12-29T01:05:01;24.80;;;16.80;;
19971;SDS011;10147;16.402;102.848;2022-12-29T01:07:31;20.00;;;16.63;;
19971;SDS011;10147;16.402;102.848;2022-12-29T01:10:02;23.98;;;17.77;;
19971;SDS011;10147;16.402;102.848;2022-12-29T01:12:39;22.65;;;17.95;;
19971;SDS011;10147;16.402;102.848;2022-12-29T01:15:10;21.23;;;16.38;;
19971;SDS011;10147;16.402;102.848;2022-12-29T01:17:42;23.08;;;17.08;;
19971;SDS011;10147;16.402;102.848;2022-12-29T01:20:12;22.88;;;16.20;;
19971;SDS011;10147;16.402;102.848;2022-12-29T01:22:42;27.00;;;15.82;;
19971;SDS011;10147;16.402;102.848;2022-12-29T01:25:14;18.50;;;15.52;;
19971;SDS011;10147;16.402;102.848;2022-12-29T01:27:44;19.40;;;15.25;;
19971;SDS011;10147;16.402;102.848;2022-12-29T01:30:15;21.48;;;14.68;;
19971;SDS011;10147;16.402;102.848;2022-12-29T01:32:45;24.08;;;17.58;;
19971;SDS011;10147;16.402;102.848;2022-12-29T01:35:18;22.35;;;18.13;;
19971;SDS011;10147;16.402;102.848;2022-12-29T01:37:48;21.92;;;16.50;;
19971;SDS011;10147;16.402;102.848;2022-12-29T01:40:19;18.83;;;14.68;;
19971;SDS011;10147;16.402;102.848;2022-12-29T01:42:50;17.75;;;13.18;;
19971;SDS011;10147;16.402;102.848;2022-12-29T01:45:20;19.55;;;13.50;;
19971;SDS011;10147;16.402;102.848;2022-12-29T01:47:52;24.77;;;14.77;;
19971;SDS011;10147;16.402;102.848;2022-12-29T01:50:29;20.35;;;13.77;;
19971;SDS011;10147;16.402;102.848;2022-12-29T01:53:02;19.92;;;14.02;;
19971;SDS011;10147;16.402;102.848;2022-12-29T01:55:42;19.45;;;13.70;;
19971;SDS011;10147;16.402;102.848;2022-12-29T01:58:14;18.90;;;14.05;;
19971;SDS011;10147;16.402;102.848;2022-12-29T02:00:45;19.63;;;14.77;;
19971;SDS011;10147;16.402;102.848;2022-12-29T02:03:16;29.80;;;26.67;;
19971;SDS011;10147;16.402;102.848;2022-12-29T02:05:52;22.10;;;15.35;;
19971;SDS011;10147;16.402;102.848;2022-12-29T02:08:24;21.25;;;13.82;;
19971;SDS011;10147;16.402;102.848;2022-12-29T02:10:57;20.13;;;14.20;;
19971;SDS011;10147;16.402;102.848;2022-12-29T02:13:28;20.05;;;14.90;;
19971;SDS011;10147;16.402;102.848;2022-12-29T02:16:07;24.65;;;22.10;;
19971;SDS011;10147;16.402;102.848;2022-12-29T02:18:49;29.55;;;26.42;;
19971;SDS011;10147;16.402;102.848;2022-12-29T02:21:39;29.77;;;24.80;;
19971;SDS011;10147;16.402;102.848;2022-12-29T02:27:08;22.58;;;14.93;;
19971;SDS011;10147;16.402;102.848;2022-12-29T02:43:59;27.20;;;24.42;;
19971;SDS011;10147;16.402;102.848;2022-12-29T02:46:47;23.60;;;18.40;;
19971;SDS011;10147;16.402;102.848;2022-12-29T02:49:25;20.42;;;15.35;;
19971;SDS011;10147;16.402;102.848;2022-12-29T02:51:59;19.98;;;14.23;;
19971;SDS011;10147;16.402;102.848;2022-12-29T02:54:31;21.13;;;14.80;;
19971;SDS011;10147;16.402;102.848;2022-12-29T02:57:14;18.80;;;14.38;;
19971;SDS011;10147;16.402;102.848;2022-12-29T02:59:45;21.88;;;14.77;;
19971;SDS011;10147;16.402;102.848;2022-12-29T03:05:22;19.92;;;14.57;;
19971;SDS011;10147;16.402;102.848;2022-12-29T03:08:04;19.15;;;13.77;;
19971;SDS011;10147;16.402;102.848;2022-12-29T03:13:33;15.32;;;11.77;;
19971;SDS011;10147;16.402;102.848;2022-12-29T03:16:36;16.20;;;11.55;;
19971;SDS011;10147;16.402;102.848;2022-12-29T03:19:14;20.48;;;13.20;;
19971;SDS011;10147;16.402;102.848;2022-12-29T03:21:52;20.88;;;13.70;;
19971;SDS011;10147;16.402;102.848;2022-12-29T03:27:50;16.95;;;12.43;;
19971;SDS011;10147;16.402;102.848;2022-12-29T03:30:21;19.27;;;13.65;;
19971;SDS011;10147;16.402;102.848;2022-12-29T03:33:01;17.08;;;13.38;;
19971;SDS011;10147;16.402;102.848;2022-12-29T03:35:33;16.58;;;12.70;;
19971;SDS011;10147;16.402;102.848;2022-12-29T03:38:11;21.08;;;13.48;;
19971;SDS011;10147;16.402;102.848;2022-12-29T03:40:48;17.20;;;12.95;;
19971;SDS011;10147;16.402;102.848;2022-12-29T03:43:20;16.10;;;13.15;;
19971;SDS011;10147;16.402;102.848;2022-12-29T03:45:50;17.33;;;14.35;;
19971;SDS011;10147;16.402;102.848;2022-12-29T03:48:21;16.55;;;13.60;;
19971;SDS011;10147;16.402;102.848;2022-12-29T03:50:54;21.88;;;13.73;;
19971;SDS011;10147;16.402;102.848;2022-12-29T03:53:25;17.90;;;14.55;;
19971;SDS011;10147;16.402;102.848;2022-12-29T03:55:55;17.90;;;14.38;;
19971;SDS011;10147;16.402;102.848;2022-12-29T03:58:26;19.50;;;14.43;;
19971;SDS011;10147;16.402;102.848;2022-12-29T04:01:05;18.23;;;13.90;;
19971;SDS011;10147;16.402;102.848;2022-12-29T04:03:37;20.60;;;14.23;;
19971;SDS011;10147;16.402;102.848;2022-12-29T04:06:09;18.48;;;14.70;;
19971;SDS011;10147;16.402;102.848;2022-12-29T04:08:51;18.50;;;13.43;;
19971;SDS011;10147;16.402;102.848;2022-12-29T04:11:21;16.67;;;13.55;;
19971;SDS011;10147;16.402;102.848;2022-12-29T04:14:01;21.23;;;14.00;;
19971;SDS011;10147;16.402;102.848;2022-12-29T04:16:33;17.13;;;14.88;;
19971;SDS011;10147;16.402;102.848;2022-12-29T04:19:06;18.90;;;13.65;;
19971;SDS011;10147;16.402;102.848;2022-12-29T04:21:36;15.65;;;14.02;;
19971;SDS011;10147;16.402;102.848;2022-12-29T04:24:08;17.55;;;14.45;;
19971;SDS011;10147;16.402;102.848;2022-12-29T04:26:40;15.70;;;13.13;;
19971;SDS011;10147;16.402;102.848;2022-12-29T04:29:25;16.17;;;12.35;;
19971;SDS011;10147;16.402;102.848;2022-12-29T04:32:12;14.95;;;13.40;;
19971;SDS011;10147;16.402;102.848;2022-12-29T04:34:47;16.58;;;14.05;;
19971;SDS011;10147;16.402;102.848;2022-12-29T04:37:18;16.50;;;13.85;;
19971;SDS011;10147;16.402;102.848;2022-12-29T04:39:48;16.80;;;14.43;;
19971;SDS011;10147;16.402;102.848;2022-12-29T04:42:18;18.08;;;15.93;;
19971;SDS011;10147;16.402;102.848;2022-12-29T04:44:50;16.48;;;14.77;;
19971;SDS011;10147;16.402;102.848;2022-12-29T04:47:40;20.55;;;15.95;;
19971;SDS011;10147;16.402;102.848;2022-12-29T04:50:30;17.00;;;15.27;;
19971;SDS011;10147;16.402;102.848;2022-12-29T04:53:13;17.88;;;15.25;;
19971;SDS011;10147;16.402;102.848;2022-12-29T04:55:50;17.65;;;15.00;;
19971;SDS011;10147;16.402;102.848;2022-12-29T04:58:21;17.85;;;14.10;;
19971;SDS011;10147;16.402;102.848;2022-12-29T05:00:52;16.08;;;14.48;;
19971;SDS011;10147;16.402;102.848;2022-12-29T05:03:25;17.23;;;15.25;;
19971;SDS011;10147;16.402;102.848;2022-12-29T05:05:56;16.58;;;14.60;;
19971;SDS011;10147;16.402;102.848;2022-12-29T05:08:26;17.15;;;14.50;;
19971;SDS011;10147;16.402;102.848;2022-12-29T05:10:59;16.20;;;13.63;;
19971;SDS011;10147;16.402;102.848;2022-12-29T05:13:29;16.33;;;13.27;;
19971;SDS011;10147;16.402;102.848;2022-12-29T05:16:01;16.48;;;14.32;;
19971;SDS011;10147;16.402;102.848;2022-12-29T05:18:32;15.50;;;13.90;;
19971;SDS011;10147;16.402;102.848;2022-12-29T05:21:03;16.23;;;13.73;;
19971;SDS011;10147;16.402;102.848;2022-12-29T05:23:34;21.38;;;13.80;;
19971;SDS011;10147;16.402;102.848;2022-12-29T05:26:06;14.85;;;13.25;;
19971;SDS011;10147;16.402;102.848;2022-12-29T05:28:55;15.02;;;12.63;;
19971;SDS011;10147;16.402;102.848;2022-12-29T05:31:26;15.13;;;13.35;;
19971;SDS011;10147;16.402;102.848;2022-12-29T05:33:57;15.13;;;13.30;;
19971;SDS011;10147;16.402;102.848;2022-12-29T05:36:28;14.30;;;12.90;;
19971;SDS011;10147;16.402;102.848;2022-12-29T05:39:09;15.13;;;13.52;;
19971;SDS011;10147;16.402;102.848;2022-12-29T05:41:42;15.45;;;13.07;;
19971;SDS011;10147;16.402;102.848;2022-12-29T05:44:32;15.30;;;13.70;;
19971;SDS011;10147;16.402;102.848;2022-12-29T05:47:18;18.80;;;15.90;;
19971;SDS011;10147;16.402;102.848;2022-12-29T05:50:01;16.85;;;12.75;;
19971;SDS011;10147;16.402;102.848;2022-12-29T05:52:51;14.40;;;12.45;;
19971;SDS011;10147;16.402;102.848;2022-12-29T05:55:21;15.48;;;13.88;;
19971;SDS011;10147;16.402;102.848;2022-12-29T05:57:54;13.18;;;11.77;;
19971;SDS011;10147;16.402;102.848;2022-12-29T06:00:24;13.18;;;11.80;;
19971;SDS011;10147;16.402;102.848;2022-12-29T06:02:55;13.65;;;12.02;;
19971;SDS011;10147;16.402;102.848;2022-12-29T06:05:26;15.82;;;12.68;;
19971;SDS011;10147;16.402;102.848;2022-12-29T06:07:57;12.65;;;11.27;;
19971;SDS011;10147;16.402;102.848;2022-12-29T06:10:28;13.68;;;11.98;;
19971;SDS011;10147;16.402;102.848;2022-12-29T06:13:05;18.08;;;11.82;;
19971;SDS011;10147;16.402;102.848;2022-12-29T06:15:39;13.40;;;12.00;;
19971;SDS011;10147;16.402;102.848;2022-12-29T06:18:11;16.00;;;14.18;;
19971;SDS011;10147;16.402;102.848;2022-12-29T06:20:47;14.63;;;12.40;;
19971;SDS011;10147;16.402;102.848;2022-12-29T06:23:18;13.98;;;12.27;;
19971;SDS011;10147;16.402;102.848;2022-12-29T06:25:48;13.65;;;12.23;;
19971;SDS011;10147;16.402;102.848;2022-12-29T06:28:19;17.30;;;13.02;;
19971;SDS011;10147;16.402;102.848;2022-12-29T06:30:50;20.25;;;12.85;;
19971;SDS011;10147;16.402;102.848;2022-12-29T06:33:21;20.40;;;16.38;;
19971;SDS011;10147;16.402;102.848;2022-12-29T06:35:52;16.17;;;12.23;;
19971;SDS011;10147;16.402;102.848;2022-12-29T06:38:23;17.95;;;14.05;;
19971;SDS011;10147;16.402;102.848;2022-12-29T06:40:53;14.02;;;12.52;;
19971;SDS011;10147;16.402;102.848;2022-12-29T06:43:43;14.77;;;12.55;;
19971;SDS011;10147;16.402;102.848;2022-12-29T06:46:24;17.95;;;15.55;;
19971;SDS011;10147;16.402;102.848;2022-12-29T06:48:54;14.32;;;12.45;;
19971;SDS011;10147;16.402;102.848;2022-12-29T06:51:24;14.68;;;12.85;;
19971;SDS011;10147;16.402;102.848;2022-12-29T06:53:55;14.82;;;12.35;;
19971;SDS011;10147;16.402;102.848;2022-12-29T06:56:25;12.90;;;11.60;;
19971;SDS011;10147;16.402;102.848;2022-12-29T06:58:56;12.57;;;11.32;;
19971;SDS011;10147;16.402;102.848;2022-12-29T07:01:29;12.98;;;11.20;;
19971;SDS011;10147;16.402;102.848;2022-12-29T07:03:59;15.73;;;11.68;;
19971;SDS011;10147;16.402;102.848;2022-12-29T07:06:30;17.40;;;12.82;;
19971;SDS011;10147;16.402;102.848;2022-12-29T07:09:00;13.18;;;11.65;;
19971;SDS011;10147;16.402;102.848;2022-12-29T07:11:31;12.27;;;10.85;;
19971;SDS011;10147;16.402;102.848;2022-12-29T07:14:02;15.02;;;11.98;;
19971;SDS011;10147;16.402;102.848;2022-12-29T07:16:33;15.02;;;11.70;;
19971;SDS011;10147;16.402;102.848;2022-12-29T07:19:04;13.07;;;11.48;;
19971;SDS011;10147;16.402;102.848;2022-12-29T07:21:35;12.68;;;11.07;;
19971;SDS011;10147;16.402;102.848;2022-12-29T07:24:13;14.50;;;12.45;;
19971;SDS011;10147;16.402;102.848;2022-12-29T07:26:43;14.25;;;12.40;;
19971;SDS011;10147;16.402;102.848;2022-12-29T07:29:13;12.68;;;11.07;;
19971;SDS011;10147;16.402;102.848;2022-12-29T07:31:44;13.50;;;10.90;;
19971;SDS011;10147;16.402;102.848;2022-12-29T07:34:14;11.18;;;9.98;;
19971;SDS011;10147;16.402;102.848;2022-12-29T07:36:44;13.23;;;10.65;;
19971;SDS011;10147;16.402;102.848;2022-12-29T07:39:15;11.20;;;10.10;;
19971;SDS011;10147;16.402;102.848;2022-12-29T07:41:45;12.05;;;10.18;;
19971;SDS011;10147;16.402;102.848;2022-12-29T07:44:18;15.43;;;12.15;;
19971;SDS011;10147;16.402;102.848;2022-12-29T07:47:08;12.27;;;11.07;;
19971;SDS011;10147;16.402;102.848;2022-12-29T07:49:38;13.27;;;10.32;;
19971;SDS011;10147;16.402;102.848;2022-12-29T07:52:09;11.77;;;10.50;;
19971;SDS011;10147;16.402;102.848;2022-12-29T07:54:39;11.63;;;10.15;;
19971;SDS011;10147;16.402;102.848;2022-12-29T07:57:09;10.35;;;9.25;;
19971;SDS011;10147;16.402;102.848;2022-12-29T07:59:40;11.88;;;10.65;;
19971;SDS011;10147;16.402;102.848;2022-12-29T08:02:11;11.88;;;10.52;;
19971;SDS011;10147;16.402;102.848;2022-12-29T08:04:42;11.82;;;10.63;;
19971;SDS011;10147;16.402;102.848;2022-12-29T08:07:12;11.45;;;10.25;;
19971;SDS011;10147;16.402;102.848;2022-12-29T08:09:42;13.48;;;11.93;;
19971;SDS011;10147;16.402;102.848;2022-12-29T08:12:13;11.38;;;10.18;;
19971;SDS011;10147;16.402;102.848;2022-12-29T08:14:43;14.55;;;10.52;;
19971;SDS011;10147;16.402;102.848;2022-12-29T08:17:14;17.88;;;16.17;;
19971;SDS011;10147;16.402;102.848;2022-12-29T08:19:44;12.88;;;11.48;;
19971;SDS011;10147;16.402;102.848;2022-12-29T08:22:15;11.00;;;9.40;;
19971;SDS011;10147;16.402;102.848;2022-12-29T08:24:45;16.55;;;10.23;;
19971;SDS011;10147;16.402;102.848;2022-12-29T08:27:17;12.52;;;10.60;;
19971;SDS011;10147;16.402;102.848;2022-12-29T08:29:48;13.50;;;11.70;;
19971;SDS011;10147;16.402;102.848;2022-12-29T08:32:19;18.02;;;15.73;;
19971;SDS011;10147;16.402;102.848;2022-12-29T08:34:50;24.20;;;21.95;;
19971;SDS011;10147;16.402;102.848;2022-12-29T08:37:20;27.83;;;25.65;;
19971;SDS011;10147;16.402;102.848;2022-12-29T08:39:57;31.17;;;28.90;;
19971;SDS011;10147;16.402;102.848;2022-12-29T08:42:29;31.27;;;28.88;;
19971;SDS011;10147;16.402;102.848;2022-12-29T08:44:59;23.80;;;21.83;;
19971;SDS011;10147;16.402;102.848;2022-12-29T08:47:30;24.38;;;22.15;;
19971;SDS011;10147;16.402;102.848;2022-12-29T08:50:00;11.60;;;10.13;;
19971;SDS011;10147;16.402;102.848;2022-12-29T08:52:30;12.27;;;11.05;;
19971;SDS011;10147;16.402;102.848;2022-12-29T08:55:01;14.45;;;12.35;;
19971;SDS011;10147;16.402;102.848;2022-12-29T08:57:31;13.27;;;11.93;;
19971;SDS011;10147;16.402;102.848;2022-12-29T09:00:10;13.07;;;11.70;;
19971;SDS011;10147;16.402;102.848;2022-12-29T09:02:41;15.38;;;12.85;;
19971;SDS011;10147;16.402;102.848;2022-12-29T09:05:11;15.70;;;11.85;;
19971;SDS011;10147;16.402;102.848;2022-12-29T09:07:42;14.68;;;12.60;;
19971;SDS011;10147;16.402;102.848;2022-12-29T09:10:13;19.02;;;16.88;;
19971;SDS011;10147;16.402;102.848;2022-12-29T09:12:46;19.98;;;15.25;;
19971;SDS011;10147;16.402;102.848;2022-12-29T09:15:17;14.40;;;13.10;;
19971;SDS011;10147;16.402;102.848;2022-12-29T09:17:48;11.85;;;10.65;;
19971;SDS011;10147;16.402;102.848;2022-12-29T09:20:19;13.93;;;12.52;;
19971;SDS011;10147;16.402;102.848;2022-12-29T09:22:50;23.30;;;17.80;;
19971;SDS011;10147;16.402;102.848;2022-12-29T09:25:20;16.65;;;15.00;;
19971;SDS011;10147;16.402;102.848;2022-12-29T09:27:53;14.50;;;12.73;;
19971;SDS011;10147;16.402;102.848;2022-12-29T09:30:23;18.80;;;14.77;;
19971;SDS011;10147;16.402;102.848;2022-12-29T09:32:54;20.17;;;16.23;;
19971;SDS011;10147;16.402;102.848;2022-12-29T09:35:25;20.25;;;15.93;;
19971;SDS011;10147;16.402;102.848;2022-12-29T09:37:55;20.70;;;17.80;;
19971;SDS011;10147;16.402;102.848;2022-12-29T09:40:27;27.63;;;20.00;;
19971;SDS011;10147;16.402;102.848;2022-12-29T09:43:05;32.20;;;22.50;;
19971;SDS011;10147;16.402;102.848;2022-12-29T09:45:43;19.45;;;16.85;;
19971;SDS011;10147;16.402;102.848;2022-12-29T09:48:16;19.85;;;16.33;;
19971;SDS011;10147;16.402;102.848;2022-12-29T09:50:49;21.45;;;15.73;;
19971;SDS011;10147;16.402;102.848;2022-12-29T09:53:36;22.80;;;17.83;;
19971;SDS011;10147;16.402;102.848;2022-12-29T09:56:13;19.98;;;16.55;;
19971;SDS011;10147;16.402;102.848;2022-12-29T09:58:52;18.95;;;14.88;;
19971;SDS011;10147;16.402;102.848;2022-12-29T10:04:15;16.50;;;14.80;;
19971;SDS011;10147;16.402;102.848;2022-12-29T10:06:51;14.82;;;13.40;;
19971;SDS011;10147;16.402;102.848;2022-12-29T10:09:53;13.57;;;12.27;;
19971;SDS011;10147;16.402;102.848;2022-12-29T10:12:39;18.73;;;13.00;;
19971;SDS011;10147;16.402;102.848;2022-12-29T10:18:18;15.80;;;12.90;;
19971;SDS011;10147;16.402;102.848;2022-12-29T10:20:58;15.45;;;12.90;;
19971;SDS011;10147;16.402;102.848;2022-12-29T10:23:40;15.65;;;12.50;;
19971;SDS011;10147;16.402;102.848;2022-12-29T10:29:05;15.82;;;13.32;;
19971;SDS011;10147;16.402;102.848;2022-12-29T10:34:29;18.48;;;14.77;;
19971;SDS011;10147;16.402;102.848;2022-12-29T10:37:05;25.90;;;19.02;;
19971;SDS011;10147;16.402;102.848;2022-12-29T10:39:48;27.58;;;20.52;;
19971;SDS011;10147;16.402;102.848;2022-12-29T10:42:33;22.08;;;18.67;;
19971;SDS011;10147;16.402;102.848;2022-12-29T10:45:05;28.30;;;21.83;;
19971;SDS011;10147;16.402;102.848;2022-12-29T10:47:37;23.58;;;19.95;;
19971;SDS011;10147;16.402;102.848;2022-12-29T10:50:11;27.85;;;20.95;;
19971;SDS011;10147;16.402;102.848;2022-12-29T10:52:42;26.90;;;21.30;;
19971;SDS011;10147;16.402;102.848;2022-12-29T10:55:15;29.50;;;19.90;;
19971;SDS011;10147;16.402;102.848;2022-12-29T10:57:47;23.60;;;20.75;;
19971;SDS011;10147;16.402;102.848;2022-12-29T11:00:19;26.80;;;20.05;;
19971;SDS011;10147;16.402;102.848;2022-12-29T11:05:44;23.98;;;17.70;;
19971;SDS011;10147;16.402;102.848;2022-12-29T11:08:17;24.23;;;16.92;;
19971;SDS011;10147;16.402;102.848;2022-12-29T11:10:57;26.17;;;18.67;;
19971;SDS011;10147;16.402;102.848;2022-12-29T11:13:30;21.40;;;15.45;;
19971;SDS011;10147;16.402;102.848;2022-12-29T11:16:05;23.08;;;15.80;;
19971;SDS011;10147;16.402;102.848;2022-12-29T11:18:36;24.35;;;17.80;;
19971;SDS011;10147;16.402;102.848;2022-12-29T11:24:05;23.95;;;17.20;;
19971;SDS011;10147;16.402;102.848;2022-12-29T11:26:36;23.35;;;18.20;;
19971;SDS011;10147;16.402;102.848;2022-12-29T11:29:24;23.33;;;17.38;;
19971;SDS011;10147;16.402;102.848;2022-12-29T11:31:56;28.42;;;18.73;;
19971;SDS011;10147;16.402;102.848;2022-12-29T11:34:32;62.45;;;55.75;;
19971;SDS011;10147;16.402;102.848;2022-12-29T11:37:06;37.65;;;28.52;;
19971;SDS011;10147;16.402;102.848;2022-12-29T11:39:54;26.95;;;20.05;;
19971;SDS011;10147;16.402;102.848;2022-12-29T11:45:17;22.85;;;16.48;;
19971;SDS011;10147;16.402;102.848;2022-12-29T11:47:49;18.50;;;15.45;;
19971;SDS011;10147;16.402;102.848;2022-12-29T11:50:23;23.20;;;16.80;;
19971;SDS011;10147;16.402;102.848;2022-12-29T11:55:52;27.90;;;17.77;;
19971;SDS011;10147;16.402;102.848;2022-12-29T11:58:33;27.20;;;18.38;;
19971;SDS011;10147;16.402;102.848;2022-12-29T12:01:11;28.30;;;19.38;;
19971;SDS011;10147;16.402;102.848;2022-12-29T12:03:47;26.58;;;19.67;;
19971;SDS011;10147;16.402;102.848;2022-12-29T12:06:19;29.05;;;20.38;;
19971;SDS011;10147;16.402;102.848;2022-12-29T12:11:42;27.08;;;19.80;;
19971;SDS011;10147;16.402;102.848;2022-12-29T12:14:18;28.85;;;20.30;;
19971;SDS011;10147;16.402;102.848;2022-12-29T12:17:21;29.58;;;20.30;;
19971;SDS011;10147;16.402;102.848;2022-12-29T12:19:56;27.80;;;20.88;;
19971;SDS011;10147;16.402;102.848;2022-12-29T12:22:31;26.48;;;20.30;;
19971;SDS011;10147;16.402;102.848;2022-12-29T12:25:10;27.35;;;19.75;;
19971;SDS011;10147;16.402;102.848;2022-12-29T12:27:51;25.75;;;19.20;;
19971;SDS011;10147;16.402;102.848;2022-12-29T12:30:24;25.83;;;19.00;;
19971;SDS011;10147;16.402;102.848;2022-12-29T12:32:56;23.05;;;18.27;;
19971;SDS011;10147;16.402;102.848;2022-12-29T12:44:05;27.85;;;19.17;;
19971;SDS011;10147;16.402;102.848;2022-12-29T12:55:30;26.20;;;19.10;;
19971;SDS011;10147;16.402;102.848;2022-12-29T12:58:03;22.65;;;17.92;;
19971;SDS011;10147;16.402;102.848;2022-12-29T13:00:46;27.90;;;17.65;;
19971;SDS011;10147;16.402;102.848;2022-12-29T13:06:21;23.85;;;17.15;;
19971;SDS011;10147;16.402;102.848;2022-12-29T13:14:36;20.20;;;15.68;;
19971;SDS011;10147;16.402;102.848;2022-12-29T13:20:11;21.00;;;16.05;;
19971;SDS011;10147;16.402;102.848;2022-12-29T13:22:52;19.63;;;15.63;;
19971;SDS011;10147;16.402;102.848;2022-12-29T13:28:25;23.35;;;16.13;;
19971;SDS011;10147;16.402;102.848;2022-12-29T13:31:02;25.20;;;16.30;;
19971;SDS011;10147;16.402;102.848;2022-12-29T13:33:38;19.13;;;15.48;;
19971;SDS011;10147;16.402;102.848;2022-12-29T13:39:02;20.58;;;18.45;;
19971;SDS011;10147;16.402;102.848;2022-12-29T13:41:43;19.40;;;16.40;;
19971;SDS011;10147;16.402;102.848;2022-12-29T13:44:16;24.65;;;19.25;;
19971;SDS011;10147;16.402;102.848;2022-12-29T13:46:47;23.67;;;16.75;;
19971;SDS011;10147;16.402;102.848;2022-12-29T13:49:20;22.20;;;15.13;;
19971;SDS011;10147;16.402;102.848;2022-12-29T13:51:57;31.02;;;21.73;;
19971;SDS011;10147;16.402;102.848;2022-12-29T14:00:12;32.75;;;21.88;;
19971;SDS011;10147;16.402;102.848;2022-12-29T14:03:04;21.45;;;16.83;;
19971;SDS011;10147;16.402;102.848;2022-12-29T14:05:34;22.00;;;15.90;;
19971;SDS011;10147;16.402;102.848;2022-12-29T14:08:04;21.95;;;16.38;;
19971;SDS011;10147;16.402;102.848;2022-12-29T14:10:37;28.75;;;25.90;;
19971;SDS011;10147;16.402;102.848;2022-12-29T14:13:17;27.25;;;24.55;;
19971;SDS011;10147;16.402;102.848;2022-12-29T14:15:55;18.00;;;15.23;;
19971;SDS011;10147;16.402;102.848;2022-12-29T14:18:27;19.42;;;14.50;;
19971;SDS011;10147;16.402;102.848;2022-12-29T14:23:52;15.13;;;13.55;;
19971;SDS011;10147;16.402;102.848;2022-12-29T14:26:34;15.57;;;13.23;;
19971;SDS011;10147;16.402;102.848;2022-12-29T14:31:55;18.42;;;12.23;;
19971;SDS011;10147;16.402;102.848;2022-12-29T14:34:27;16.52;;;13.35;;
19971;SDS011;10147;16.402;102.848;2022-12-29T14:36:59;15.43;;;12.95;;
19971;SDS011;10147;16.402;102.848;2022-12-29T14:42:20;17.65;;;13.82;;
19971;SDS011;10147;16.402;102.848;2022-12-29T14:45:02;21.13;;;13.10;;
19971;SDS011;10147;16.402;102.848;2022-12-29T14:47:35;15.60;;;13.15;;
19971;SDS011;10147;16.402;102.848;2022-12-29T14:50:15;16.48;;;13.10;;
19971;SDS011;10147;16.402;102.848;2022-12-29T14:52:56;19.25;;;14.68;;
19971;SDS011;10147;16.402;102.848;2022-12-29T14:55:43;18.55;;;14.20;;
19971;SDS011;10147;16.402;102.848;2022-12-29T15:01:18;18.75;;;13.82;;
19971;SDS011;10147;16.402;102.848;2022-12-29T15:03:51;18.65;;;13.70;;
19971;SDS011;10147;16.402;102.848;2022-12-29T15:06:23;17.98;;;14.90;;
19971;SDS011;10147;16.402;102.848;2022-12-29T15:08:59;17.85;;;13.93;;
19971;SDS011;10147;16.402;102.848;2022-12-29T15:20:14;17.40;;;15.27;;
19971;SDS011;10147;16.402;102.848;2022-12-29T15:22:47;18.90;;;15.55;;
19971;SDS011;10147;16.402;102.848;2022-12-29T15:25:19;17.38;;;15.05;;
19971;SDS011;10147;16.402;102.848;2022-12-29T15:27:53;18.35;;;14.90;;
19971;SDS011;10147;16.402;102.848;2022-12-29T15:30:23;18.02;;;15.27;;
19971;SDS011;10147;16.402;102.848;2022-12-29T15:32:54;17.63;;;14.55;;
19971;SDS011;10147;16.402;102.848;2022-12-29T15:35:29;16.67;;;13.93;;
19971;SDS011;10147;16.402;102.848;2022-12-29T15:38:01;30.83;;;22.92;;
19971;SDS011;10147;16.402;102.848;2022-12-29T15:40:45;17.88;;;15.82;;
19971;SDS011;10147;16.402;102.848;2022-12-29T15:43:34;18.05;;;14.45;;
19971;SDS011;10147;16.402;102.848;2022-12-29T15:46:13;18.27;;;14.32;;
19971;SDS011;10147;16.402;102.848;2022-12-29T15:48:43;16.20;;;13.80;;
19971;SDS011;10147;16.402;102.848;2022-12-29T15:51:18;24.88;;;14.90;;
19971;SDS011;10147;16.402;102.848;2022-12-29T15:53:50;17.13;;;13.85;;
19971;SDS011;10147;16.402;102.848;2022-12-29T15:56:20;17.23;;;13.85;;
19971;SDS011;10147;16.402;102.848;2022-12-29T15:58:52;17.35;;;14.15;;
19971;SDS011;10147;16.402;102.848;2022-12-29T16:04:10;19.58;;;14.45;;
19971;SDS011;10147;16.402;102.848;2022-12-29T16:06:44;16.38;;;13.50;;
19971;SDS011;10147;16.402;102.848;2022-12-29T16:09:34;16.13;;;13.75;;
19971;SDS011;10147;16.402;102.848;2022-12-29T16:12:05;20.27;;;13.77;;
19971;SDS011;10147;16.402;102.848;2022-12-29T16:14:40;17.33;;;13.38;;
19971;SDS011;10147;16.402;102.848;2022-12-29T16:17:13;17.98;;;14.40;;
19971;SDS011;10147;16.402;102.848;2022-12-29T16:19:55;15.98;;;13.98;;
19971;SDS011;10147;16.402;102.848;2022-12-29T16:22:34;21.98;;;14.48;;
19971;SDS011;10147;16.402;102.848;2022-12-29T16:27:55;20.85;;;14.65;;
19971;SDS011;10147;16.402;102.848;2022-12-29T16:30:27;16.80;;;13.35;;
19971;SDS011;10147;16.402;102.848;2022-12-29T16:33:02;19.58;;;17.75;;
19971;SDS011;10147;16.402;102.848;2022-12-29T16:38:23;23.38;;;19.67;;
19971;SDS011;10147;16.402;102.848;2022-12-29T16:41:01;21.73;;;19.40;;